sensor_id;sensor_type;location;lat;lon;timestamp;P1;durP1;ratioP1;P2;durP2;ratioP2
76023;SDS011;64719;52.124;6.226;2024-01-27T00:01:59;9.45;;;2.97;;
76023;SDS011;64719;52.124;6.226;2024-01-27T00:04:26;15.18;;;3.15;;
76023;SDS011;64719;52.124;6.226;2024-01-27T00:06:52;8.15;;;2.75;;
76023;SDS011;64719;52.124;6.226;2024-01-27T00:09:20;11.32;;;3.53;;
76023;SDS011;64719;52.124;6.226;2024-01-27T00:11:46;25.75;;;3.75;;
76023;SDS011;64719;52.124;6.226;2024-01-27T00:14:12;17.35;;;3.45;;
76023;SDS011;64719;52.124;6.226;2024-01-27T00:16:39;11.00;;;3.25;;
76023;SDS011;64719;52.124;6.226;2024-01-27T00:19:05;13.63;;;3.13;;
76023;SDS011;64719;52.124;6.226;2024-01-27T00:21:31;10.40;;;3.80;;
76023;SDS011;64719;52.124;6.226;2024-01-27T00:23:58;13.73;;;2.90;;
76023;SDS011;64719;52.124;6.226;2024-01-27T00:26:27;9.82;;;2.80;;
76023;SDS011;64719;52.124;6.226;2024-01-27T00:28:53;12.35;;;2.90;;
76023;SDS011;64719;52.124;6.226;2024-01-27T00:31:20;14.25;;;3.05;;
76023;SDS011;64719;52.124;6.226;2024-01-27T00:33:46;11.48;;;3.20;;
76023;SDS011;64719;52.124;6.226;2024-01-27T00:36:12;21.30;;;3.55;;
76023;SDS011;64719;52.124;6.226;2024-01-27T00:38:39;5.95;;;2.63;;
76023;SDS011;64719;52.124;6.226;2024-01-27T00:41:05;17.73;;;3.20;;
76023;SDS011;64719;52.124;6.226;2024-01-27T00:43:33;13.55;;;2.90;;
76023;SDS011;64719;52.124;6.226;2024-01-27T00:45:59;17.33;;;3.75;;
76023;SDS011;64719;52.124;6.226;2024-01-27T00:48:25;19.75;;;3.67;;
76023;SDS011;64719;52.124;6.226;2024-01-27T00:50:52;13.30;;;3.40;;
76023;SDS011;64719;52.124;6.226;2024-01-27T00:53:18;14.20;;;3.55;;
76023;SDS011;64719;52.124;6.226;2024-01-27T00:55:45;9.32;;;3.10;;
76023;SDS011;64719;52.124;6.226;2024-01-27T00:58:11;14.73;;;3.63;;
76023;SDS011;64719;52.124;6.226;2024-01-27T01:00:39;7.13;;;3.45;;
76023;SDS011;64719;52.124;6.226;2024-01-27T01:03:05;7.63;;;2.92;;
76023;SDS011;64719;52.124;6.226;2024-01-27T01:05:32;10.00;;;3.00;;
76023;SDS011;64719;52.124;6.226;2024-01-27T01:07:58;16.15;;;3.65;;
76023;SDS011;64719;52.124;6.226;2024-01-27T01:10:24;14.25;;;3.08;;
76023;SDS011;64719;52.124;6.226;2024-01-27T01:12:51;11.93;;;3.28;;
76023;SDS011;64719;52.124;6.226;2024-01-27T01:15:17;18.02;;;3.70;;
76023;SDS011;64719;52.124;6.226;2024-01-27T01:17:45;16.92;;;3.30;;
76023;SDS011;64719;52.124;6.226;2024-01-27T01:20:12;17.67;;;3.63;;
76023;SDS011;64719;52.124;6.226;2024-01-27T01:22:38;14.73;;;3.65;;
76023;SDS011;64719;52.124;6.226;2024-01-27T01:25:04;10.43;;;4.18;;
76023;SDS011;64719;52.124;6.226;2024-01-27T01:27:31;14.35;;;3.30;;
76023;SDS011;64719;52.124;6.226;2024-01-27T01:29:57;15.75;;;4.32;;
76023;SDS011;64719;52.124;6.226;2024-01-27T01:32:23;12.68;;;3.55;;
76023;SDS011;64719;52.124;6.226;2024-01-27T01:34:51;11.80;;;3.88;;
76023;SDS011;64719;52.124;6.226;2024-01-27T01:37:18;11.07;;;4.03;;
76023;SDS011;64719;52.124;6.226;2024-01-27T01:39:45;12.10;;;4.15;;
76023;SDS011;64719;52.124;6.226;2024-01-27T01:42:11;15.98;;;3.25;;
76023;SDS011;64719;52.124;6.226;2024-01-27T01:44:37;15.82;;;3.95;;
76023;SDS011;64719;52.124;6.226;2024-01-27T01:47:04;12.88;;;3.55;;
76023;SDS011;64719;52.124;6.226;2024-01-27T01:49:30;16.90;;;3.83;;
76023;SDS011;64719;52.124;6.226;2024-01-27T01:51:58;12.45;;;4.47;;
76023;SDS011;64719;52.124;6.226;2024-01-27T01:54:24;13.52;;;3.78;;
76023;SDS011;64719;52.124;6.226;2024-01-27T01:56:53;11.82;;;3.55;;
76023;SDS011;64719;52.124;6.226;2024-01-27T01:59:19;12.23;;;3.65;;
76023;SDS011;64719;52.124;6.226;2024-01-27T02:01:45;14.13;;;4.82;;
76023;SDS011;64719;52.124;6.226;2024-01-27T02:04:12;11.25;;;3.78;;
76023;SDS011;64719;52.124;6.226;2024-01-27T02:06:38;17.73;;;4.68;;
76023;SDS011;64719;52.124;6.226;2024-01-27T02:09:06;9.07;;;3.80;;
76023;SDS011;64719;52.124;6.226;2024-01-27T02:11:32;15.63;;;4.22;;
76023;SDS011;64719;52.124;6.226;2024-01-27T02:13:58;16.10;;;4.90;;
76023;SDS011;64719;52.124;6.226;2024-01-27T02:16:25;17.52;;;5.63;;
76023;SDS011;64719;52.124;6.226;2024-01-27T02:18:52;11.57;;;5.00;;
76023;SDS011;64719;52.124;6.226;2024-01-27T02:21:18;17.55;;;5.15;;
76023;SDS011;64719;52.124;6.226;2024-01-27T02:23:44;11.45;;;5.22;;
76023;SDS011;64719;52.124;6.226;2024-01-27T02:26:12;12.52;;;4.90;;
76023;SDS011;64719;52.124;6.226;2024-01-27T02:28:38;15.05;;;4.95;;
76023;SDS011;64719;52.124;6.226;2024-01-27T02:31:05;19.35;;;5.30;;
76023;SDS011;64719;52.124;6.226;2024-01-27T02:33:31;12.43;;;5.63;;
76023;SDS011;64719;52.124;6.226;2024-01-27T02:35:57;16.27;;;5.32;;
76023;SDS011;64719;52.124;6.226;2024-01-27T02:38:23;22.35;;;5.70;;
76023;SDS011;64719;52.124;6.226;2024-01-27T02:40:50;22.75;;;5.80;;
76023;SDS011;64719;52.124;6.226;2024-01-27T02:43:17;17.67;;;5.88;;
76023;SDS011;64719;52.124;6.226;2024-01-27T02:45:44;14.82;;;4.93;;
76023;SDS011;64719;52.124;6.226;2024-01-27T02:48:10;15.57;;;6.10;;
76023;SDS011;64719;52.124;6.226;2024-01-27T02:50:36;10.93;;;5.45;;
76023;SDS011;64719;52.124;6.226;2024-01-27T02:53:03;13.25;;;6.15;;
76023;SDS011;64719;52.124;6.226;2024-01-27T02:55:29;20.70;;;7.20;;
76023;SDS011;64719;52.124;6.226;2024-01-27T02:57:55;13.27;;;6.20;;
76023;SDS011;64719;52.124;6.226;2024-01-27T03:00:23;14.15;;;5.43;;
76023;SDS011;64719;52.124;6.226;2024-01-27T03:02:49;24.83;;;6.32;;
76023;SDS011;64719;52.124;6.226;2024-01-27T03:05:16;16.38;;;5.55;;
76023;SDS011;64719;52.124;6.226;2024-01-27T03:07:42;18.92;;;5.65;;
76023;SDS011;64719;52.124;6.226;2024-01-27T03:10:08;19.35;;;6.32;;
76023;SDS011;64719;52.124;6.226;2024-01-27T03:12:36;16.70;;;6.13;;
76023;SDS011;64719;52.124;6.226;2024-01-27T03:15:02;16.52;;;6.20;;
76023;SDS011;64719;52.124;6.226;2024-01-27T03:17:30;19.15;;;7.03;;
76023;SDS011;64719;52.124;6.226;2024-01-27T03:19:56;18.27;;;5.78;;
76023;SDS011;64719;52.124;6.226;2024-01-27T03:22:22;14.45;;;6.57;;
76023;SDS011;64719;52.124;6.226;2024-01-27T03:24:49;12.85;;;6.18;;
76023;SDS011;64719;52.124;6.226;2024-01-27T03:27:16;20.17;;;7.53;;
76023;SDS011;64719;52.124;6.226;2024-01-27T03:29:43;19.52;;;7.43;;
76023;SDS011;64719;52.124;6.226;2024-01-27T03:32:09;13.40;;;6.65;;
76023;SDS011;64719;52.124;6.226;2024-01-27T03:34:37;27.88;;;7.75;;
76023;SDS011;64719;52.124;6.226;2024-01-27T03:37:07;19.38;;;7.65;;
76023;SDS011;64719;52.124;6.226;2024-01-27T03:39:33;12.70;;;6.88;;
76023;SDS011;64719;52.124;6.226;2024-01-27T03:42:00;17.08;;;7.22;;
76023;SDS011;64719;52.124;6.226;2024-01-27T03:44:26;20.83;;;7.85;;
76023;SDS011;64719;52.124;6.226;2024-01-27T03:46:52;28.80;;;8.30;;
76023;SDS011;64719;52.124;6.226;2024-01-27T03:49:19;18.45;;;7.97;;
76023;SDS011;64719;52.124;6.226;2024-01-27T03:51:46;18.08;;;7.88;;
76023;SDS011;64719;52.124;6.226;2024-01-27T03:54:13;23.23;;;7.45;;
76023;SDS011;64719;52.124;6.226;2024-01-27T03:56:40;19.60;;;6.55;;
76023;SDS011;64719;52.124;6.226;2024-01-27T03:59:07;18.50;;;7.50;;
76023;SDS011;64719;52.124;6.226;2024-01-27T04:01:34;14.82;;;6.88;;
76023;SDS011;64719;52.124;6.226;2024-01-27T04:04:00;16.58;;;7.57;;
76023;SDS011;64719;52.124;6.226;2024-01-27T04:06:27;15.45;;;7.15;;
76023;SDS011;64719;52.124;6.226;2024-01-27T04:08:54;14.77;;;6.85;;
76023;SDS011;64719;52.124;6.226;2024-01-27T04:11:21;21.58;;;7.28;;
76023;SDS011;64719;52.124;6.226;2024-01-27T04:13:48;17.65;;;7.43;;
76023;SDS011;64719;52.124;6.226;2024-01-27T04:16:14;21.63;;;7.80;;
76023;SDS011;64719;52.124;6.226;2024-01-27T04:18:41;21.98;;;7.93;;
76023;SDS011;64719;52.124;6.226;2024-01-27T04:21:07;18.98;;;8.32;;
76023;SDS011;64719;52.124;6.226;2024-01-27T04:23:34;16.67;;;7.75;;
76023;SDS011;64719;52.124;6.226;2024-01-27T04:26:01;21.48;;;8.95;;
76023;SDS011;64719;52.124;6.226;2024-01-27T04:28:28;17.50;;;7.50;;
76023;SDS011;64719;52.124;6.226;2024-01-27T04:30:55;24.65;;;9.50;;
76023;SDS011;64719;52.124;6.226;2024-01-27T04:33:21;23.45;;;8.07;;
76023;SDS011;64719;52.124;6.226;2024-01-27T04:35:48;25.80;;;8.93;;
76023;SDS011;64719;52.124;6.226;2024-01-27T04:38:14;16.52;;;7.88;;
76023;SDS011;64719;52.124;6.226;2024-01-27T04:40:40;20.77;;;8.77;;
76023;SDS011;64719;52.124;6.226;2024-01-27T04:43:08;20.95;;;8.43;;
76023;SDS011;64719;52.124;6.226;2024-01-27T04:45:34;18.38;;;9.25;;
76023;SDS011;64719;52.124;6.226;2024-01-27T04:48:01;21.92;;;9.65;;
76023;SDS011;64719;52.124;6.226;2024-01-27T04:50:27;20.33;;;8.95;;
76023;SDS011;64719;52.124;6.226;2024-01-27T04:52:53;15.98;;;8.98;;
76023;SDS011;64719;52.124;6.226;2024-01-27T04:55:19;26.48;;;10.05;;
76023;SDS011;64719;52.124;6.226;2024-01-27T04:57:46;26.25;;;10.52;;
76023;SDS011;64719;52.124;6.226;2024-01-27T05:00:14;27.60;;;10.88;;
76023;SDS011;64719;52.124;6.226;2024-01-27T05:02:41;25.70;;;11.93;;
76023;SDS011;64719;52.124;6.226;2024-01-27T05:05:07;29.15;;;11.07;;
76023;SDS011;64719;52.124;6.226;2024-01-27T05:07:34;28.67;;;10.60;;
76023;SDS011;64719;52.124;6.226;2024-01-27T05:10:00;26.05;;;9.90;;
76023;SDS011;64719;52.124;6.226;2024-01-27T05:12:27;24.90;;;10.32;;
76023;SDS011;64719;52.124;6.226;2024-01-27T05:14:53;22.10;;;10.43;;
76023;SDS011;64719;52.124;6.226;2024-01-27T05:17:21;29.83;;;10.82;;
76023;SDS011;64719;52.124;6.226;2024-01-27T05:19:49;24.23;;;10.52;;
76023;SDS011;64719;52.124;6.226;2024-01-27T05:22:15;26.75;;;10.40;;
76023;SDS011;64719;52.124;6.226;2024-01-27T05:24:42;25.75;;;12.88;;
76023;SDS011;64719;52.124;6.226;2024-01-27T05:27:08;37.10;;;11.15;;
76023;SDS011;64719;52.124;6.226;2024-01-27T05:29:36;35.55;;;11.68;;
76023;SDS011;64719;52.124;6.226;2024-01-27T05:32:02;31.33;;;12.75;;
76023;SDS011;64719;52.124;6.226;2024-01-27T05:34:30;30.27;;;12.50;;
76023;SDS011;64719;52.124;6.226;2024-01-27T05:36:56;28.73;;;12.73;;
76023;SDS011;64719;52.124;6.226;2024-01-27T05:39:23;35.72;;;13.40;;
76023;SDS011;64719;52.124;6.226;2024-01-27T05:41:49;34.80;;;14.45;;
76023;SDS011;64719;52.124;6.226;2024-01-27T05:44:15;40.20;;;14.25;;
76023;SDS011;64719;52.124;6.226;2024-01-27T05:46:42;33.20;;;13.98;;
76023;SDS011;64719;52.124;6.226;2024-01-27T05:49:08;38.58;;;15.02;;
76023;SDS011;64719;52.124;6.226;2024-01-27T05:51:36;44.60;;;15.98;;
76023;SDS011;64719;52.124;6.226;2024-01-27T05:54:03;39.60;;;14.10;;
76023;SDS011;64719;52.124;6.226;2024-01-27T05:56:29;42.55;;;15.43;;
76023;SDS011;64719;52.124;6.226;2024-01-27T05:58:56;39.85;;;15.23;;
76023;SDS011;64719;52.124;6.226;2024-01-27T06:01:22;36.42;;;14.25;;
76023;SDS011;64719;52.124;6.226;2024-01-27T06:03:48;48.13;;;15.35;;
76023;SDS011;64719;52.124;6.226;2024-01-27T06:06:15;41.50;;;15.43;;
76023;SDS011;64719;52.124;6.226;2024-01-27T06:08:42;47.35;;;16.95;;
76023;SDS011;64719;52.124;6.226;2024-01-27T06:11:09;42.80;;;15.30;;
76023;SDS011;64719;52.124;6.226;2024-01-27T06:13:35;41.30;;;15.88;;
76023;SDS011;64719;52.124;6.226;2024-01-27T06:16:05;43.13;;;15.77;;
76023;SDS011;64719;52.124;6.226;2024-01-27T06:18:32;43.47;;;17.40;;
76023;SDS011;64719;52.124;6.226;2024-01-27T06:20:58;46.13;;;16.02;;
76023;SDS011;64719;52.124;6.226;2024-01-27T06:23:25;38.45;;;16.65;;
76023;SDS011;64719;52.124;6.226;2024-01-27T06:25:53;38.85;;;15.65;;
76023;SDS011;64719;52.124;6.226;2024-01-27T06:28:19;42.22;;;15.90;;
76023;SDS011;64719;52.124;6.226;2024-01-27T06:30:46;34.78;;;17.58;;
76023;SDS011;64719;52.124;6.226;2024-01-27T06:33:12;37.65;;;16.35;;
76023;SDS011;64719;52.124;6.226;2024-01-27T06:35:38;36.80;;;16.33;;
76023;SDS011;64719;52.124;6.226;2024-01-27T06:38:04;46.00;;;16.80;;
76023;SDS011;64719;52.124;6.226;2024-01-27T06:40:31;39.45;;;15.48;;
76023;SDS011;64719;52.124;6.226;2024-01-27T06:42:58;50.38;;;18.20;;
76023;SDS011;64719;52.124;6.226;2024-01-27T06:45:25;39.45;;;15.32;;
76023;SDS011;64719;52.124;6.226;2024-01-27T06:47:51;36.35;;;16.10;;
76023;SDS011;64719;52.124;6.226;2024-01-27T06:50:17;40.92;;;16.77;;
76023;SDS011;64719;52.124;6.226;2024-01-27T06:52:44;39.78;;;17.50;;
76023;SDS011;64719;52.124;6.226;2024-01-27T06:55:11;35.85;;;16.98;;
76023;SDS011;64719;52.124;6.226;2024-01-27T06:57:37;51.60;;;19.05;;
76023;SDS011;64719;52.124;6.226;2024-01-27T07:00:07;43.63;;;17.75;;
76023;SDS011;64719;52.124;6.226;2024-01-27T07:02:34;42.53;;;17.58;;
76023;SDS011;64719;52.124;6.226;2024-01-27T07:05:00;40.67;;;17.70;;
76023;SDS011;64719;52.124;6.226;2024-01-27T07:07:27;40.65;;;15.98;;
76023;SDS011;64719;52.124;6.226;2024-01-27T07:09:54;44.05;;;18.02;;
76023;SDS011;64719;52.124;6.226;2024-01-27T07:12:20;47.50;;;17.67;;
76023;SDS011;64719;52.124;6.226;2024-01-27T07:14:47;37.65;;;16.55;;
76023;SDS011;64719;52.124;6.226;2024-01-27T07:17:14;41.22;;;19.70;;
76023;SDS011;64719;52.124;6.226;2024-01-27T07:19:41;44.08;;;16.92;;
76023;SDS011;64719;52.124;6.226;2024-01-27T07:22:07;40.55;;;19.30;;
76023;SDS011;64719;52.124;6.226;2024-01-27T07:24:33;43.10;;;18.80;;
76023;SDS011;64719;52.124;6.226;2024-01-27T07:27:00;39.90;;;18.13;;
76023;SDS011;64719;52.124;6.226;2024-01-27T07:29:26;39.38;;;17.73;;
76023;SDS011;64719;52.124;6.226;2024-01-27T07:31:53;43.55;;;19.25;;
76023;SDS011;64719;52.124;6.226;2024-01-27T07:34:20;41.60;;;18.17;;
76023;SDS011;64719;52.124;6.226;2024-01-27T07:36:47;59.05;;;21.23;;
76023;SDS011;64719;52.124;6.226;2024-01-27T07:39:14;45.45;;;21.13;;
76023;SDS011;64719;52.124;6.226;2024-01-27T07:41:40;47.83;;;21.50;;
76023;SDS011;64719;52.124;6.226;2024-01-27T07:44:08;56.33;;;24.80;;
76023;SDS011;64719;52.124;6.226;2024-01-27T07:46:35;61.85;;;23.08;;
76023;SDS011;64719;52.124;6.226;2024-01-27T07:49:01;68.95;;;25.40;;
76023;SDS011;64719;52.124;6.226;2024-01-27T07:51:29;54.53;;;23.35;;
76023;SDS011;64719;52.124;6.226;2024-01-27T07:53:55;56.13;;;22.48;;
76023;SDS011;64719;52.124;6.226;2024-01-27T07:56:21;50.67;;;23.75;;
76023;SDS011;64719;52.124;6.226;2024-01-27T07:58:48;56.75;;;24.85;;
76023;SDS011;64719;52.124;6.226;2024-01-27T08:01:14;56.25;;;23.52;;
76023;SDS011;64719;52.124;6.226;2024-01-27T08:03:40;45.53;;;21.30;;
76023;SDS011;64719;52.124;6.226;2024-01-27T08:06:07;46.35;;;20.38;;
76023;SDS011;64719;52.124;6.226;2024-01-27T08:08:36;40.70;;;20.63;;
76023;SDS011;64719;52.124;6.226;2024-01-27T08:11:03;45.58;;;20.58;;
76023;SDS011;64719;52.124;6.226;2024-01-27T08:13:29;50.60;;;20.30;;
76023;SDS011;64719;52.124;6.226;2024-01-27T08:15:55;42.10;;;20.27;;
76023;SDS011;64719;52.124;6.226;2024-01-27T08:18:22;43.63;;;19.50;;
76023;SDS011;64719;52.124;6.226;2024-01-27T08:20:48;47.15;;;18.88;;
76023;SDS011;64719;52.124;6.226;2024-01-27T08:23:14;31.90;;;18.10;;
76023;SDS011;64719;52.124;6.226;2024-01-27T08:25:42;36.78;;;18.02;;
76023;SDS011;64719;52.124;6.226;2024-01-27T08:28:10;35.83;;;17.55;;
76023;SDS011;64719;52.124;6.226;2024-01-27T08:30:36;39.20;;;17.15;;
76023;SDS011;64719;52.124;6.226;2024-01-27T08:33:04;37.67;;;17.42;;
76023;SDS011;64719;52.124;6.226;2024-01-27T08:35:31;32.95;;;16.63;;
76023;SDS011;64719;52.124;6.226;2024-01-27T08:37:57;36.72;;;16.73;;
76023;SDS011;64719;52.124;6.226;2024-01-27T08:40:23;35.22;;;16.63;;
76023;SDS011;64719;52.124;6.226;2024-01-27T08:42:52;29.20;;;16.15;;
76023;SDS011;64719;52.124;6.226;2024-01-27T08:45:18;29.20;;;15.98;;
76023;SDS011;64719;52.124;6.226;2024-01-27T08:47:44;28.02;;;15.25;;
76023;SDS011;64719;52.124;6.226;2024-01-27T08:50:11;24.90;;;14.40;;
76023;SDS011;64719;52.124;6.226;2024-01-27T08:52:37;26.10;;;14.23;;
76023;SDS011;64719;52.124;6.226;2024-01-27T08:55:04;29.88;;;14.85;;
76023;SDS011;64719;52.124;6.226;2024-01-27T08:57:30;25.67;;;13.20;;
76023;SDS011;64719;52.124;6.226;2024-01-27T08:59:58;29.73;;;14.90;;
76023;SDS011;64719;52.124;6.226;2024-01-27T09:02:24;28.88;;;13.88;;
76023;SDS011;64719;52.124;6.226;2024-01-27T09:04:50;25.35;;;14.77;;
76023;SDS011;64719;52.124;6.226;2024-01-27T09:07:16;22.30;;;12.05;;
76023;SDS011;64719;52.124;6.226;2024-01-27T09:09:43;15.75;;;9.90;;
76023;SDS011;64719;52.124;6.226;2024-01-27T09:12:10;14.85;;;8.32;;
76023;SDS011;64719;52.124;6.226;2024-01-27T09:14:37;19.77;;;8.52;;
76023;SDS011;64719;52.124;6.226;2024-01-27T09:17:04;16.55;;;8.75;;
76023;SDS011;64719;52.124;6.226;2024-01-27T09:19:30;16.73;;;8.43;;
76023;SDS011;64719;52.124;6.226;2024-01-27T09:21:57;17.60;;;8.80;;
76023;SDS011;64719;52.124;6.226;2024-01-27T09:24:24;17.90;;;9.13;;
76023;SDS011;64719;52.124;6.226;2024-01-27T09:26:50;13.43;;;8.60;;
76023;SDS011;64719;52.124;6.226;2024-01-27T09:29:16;14.68;;;9.25;;
76023;SDS011;64719;52.124;6.226;2024-01-27T09:31:44;13.10;;;7.78;;
76023;SDS011;64719;52.124;6.226;2024-01-27T09:34:12;15.48;;;8.50;;
76023;SDS011;64719;52.124;6.226;2024-01-27T09:36:38;13.90;;;7.25;;
76023;SDS011;64719;52.124;6.226;2024-01-27T09:39:04;14.90;;;7.80;;
76023;SDS011;64719;52.124;6.226;2024-01-27T09:41:31;13.68;;;7.10;;
76023;SDS011;64719;52.124;6.226;2024-01-27T09:43:58;15.07;;;7.32;;
76023;SDS011;64719;52.124;6.226;2024-01-27T09:46:25;15.48;;;8.10;;
76023;SDS011;64719;52.124;6.226;2024-01-27T09:48:52;14.02;;;7.43;;
76023;SDS011;64719;52.124;6.226;2024-01-27T09:51:20;11.02;;;7.63;;
76023;SDS011;64719;52.124;6.226;2024-01-27T09:53:47;14.30;;;7.07;;
76023;SDS011;64719;52.124;6.226;2024-01-27T09:56:15;14.43;;;7.47;;
76023;SDS011;64719;52.124;6.226;2024-01-27T09:58:43;13.93;;;7.75;;
76023;SDS011;64719;52.124;6.226;2024-01-27T10:01:09;14.20;;;7.10;;
76023;SDS011;64719;52.124;6.226;2024-01-27T10:03:37;15.73;;;7.25;;
76023;SDS011;64719;52.124;6.226;2024-01-27T10:06:04;13.45;;;6.75;;
76023;SDS011;64719;52.124;6.226;2024-01-27T10:08:35;13.90;;;6.82;;
76023;SDS011;64719;52.124;6.226;2024-01-27T10:11:05;10.73;;;6.80;;
76023;SDS011;64719;52.124;6.226;2024-01-27T10:13:32;13.85;;;7.40;;
76023;SDS011;64719;52.124;6.226;2024-01-27T10:16:01;16.13;;;7.18;;
76023;SDS011;64719;52.124;6.226;2024-01-27T10:18:28;12.15;;;7.18;;
76023;SDS011;64719;52.124;6.226;2024-01-27T10:20:54;15.27;;;7.15;;
76023;SDS011;64719;52.124;6.226;2024-01-27T10:23:20;12.82;;;7.32;;
76023;SDS011;64719;52.124;6.226;2024-01-27T10:25:48;12.07;;;6.75;;
76023;SDS011;64719;52.124;6.226;2024-01-27T10:28:15;12.02;;;7.25;;
76023;SDS011;64719;52.124;6.226;2024-01-27T10:30:42;12.95;;;7.15;;
76023;SDS011;64719;52.124;6.226;2024-01-27T10:33:08;12.88;;;7.15;;
76023;SDS011;64719;52.124;6.226;2024-01-27T10:35:35;15.02;;;6.45;;
76023;SDS011;64719;52.124;6.226;2024-01-27T10:38:01;13.60;;;7.20;;
76023;SDS011;64719;52.124;6.226;2024-01-27T10:40:28;14.30;;;7.00;;
76023;SDS011;64719;52.124;6.226;2024-01-27T10:42:59;12.07;;;6.75;;
76023;SDS011;64719;52.124;6.226;2024-01-27T10:45:26;13.07;;;7.30;;
76023;SDS011;64719;52.124;6.226;2024-01-27T10:47:53;11.02;;;6.82;;
76023;SDS011;64719;52.124;6.226;2024-01-27T10:50:20;13.15;;;7.43;;
76023;SDS011;64719;52.124;6.226;2024-01-27T10:52:48;11.75;;;7.00;;
76023;SDS011;64719;52.124;6.226;2024-01-27T10:55:16;12.38;;;7.15;;
76023;SDS011;64719;52.124;6.226;2024-01-27T10:57:43;13.75;;;7.22;;
76023;SDS011;64719;52.124;6.226;2024-01-27T11:00:12;11.23;;;6.85;;
76023;SDS011;64719;52.124;6.226;2024-01-27T11:02:39;15.93;;;7.15;;
76023;SDS011;64719;52.124;6.226;2024-01-27T11:05:07;10.68;;;6.90;;
76023;SDS011;64719;52.124;6.226;2024-01-27T11:07:34;12.45;;;6.82;;
76023;SDS011;64719;52.124;6.226;2024-01-27T11:10:00;11.82;;;6.30;;
76023;SDS011;64719;52.124;6.226;2024-01-27T11:12:27;13.23;;;6.90;;
76023;SDS011;64719;52.124;6.226;2024-01-27T11:14:54;15.90;;;6.45;;
76023;SDS011;64719;52.124;6.226;2024-01-27T11:17:25;11.98;;;6.38;;
76023;SDS011;64719;52.124;6.226;2024-01-27T11:19:53;12.38;;;6.68;;
76023;SDS011;64719;52.124;6.226;2024-01-27T11:22:24;13.90;;;7.72;;
76023;SDS011;64719;52.124;6.226;2024-01-27T11:27:18;12.95;;;6.60;;
76023;SDS011;64719;52.124;6.226;2024-01-27T11:29:46;12.73;;;6.05;;
76023;SDS011;64719;52.124;6.226;2024-01-27T11:32:13;12.80;;;6.55;;
76023;SDS011;64719;52.124;6.226;2024-01-27T11:34:44;14.35;;;6.15;;
76023;SDS011;64719;52.124;6.226;2024-01-27T11:37:11;10.27;;;5.65;;
76023;SDS011;64719;52.124;6.226;2024-01-27T11:39:38;13.13;;;5.85;;
76023;SDS011;64719;52.124;6.226;2024-01-27T11:42:04;10.90;;;6.05;;
76023;SDS011;64719;52.124;6.226;2024-01-27T11:44:33;12.60;;;6.05;;
76023;SDS011;64719;52.124;6.226;2024-01-27T11:46:59;14.38;;;6.13;;
76023;SDS011;64719;52.124;6.226;2024-01-27T11:49:25;12.02;;;6.05;;
76023;SDS011;64719;52.124;6.226;2024-01-27T11:51:54;15.48;;;6.50;;
76023;SDS011;64719;52.124;6.226;2024-01-27T11:54:20;10.10;;;5.40;;
76023;SDS011;64719;52.124;6.226;2024-01-27T11:56:46;13.25;;;5.47;;
76023;SDS011;64719;52.124;6.226;2024-01-27T11:59:14;13.45;;;5.82;;
76023;SDS011;64719;52.124;6.226;2024-01-27T12:01:40;11.93;;;5.18;;
76023;SDS011;64719;52.124;6.226;2024-01-27T12:04:07;11.70;;;5.85;;
76023;SDS011;64719;52.124;6.226;2024-01-27T12:06:33;9.80;;;4.60;;
76023;SDS011;64719;52.124;6.226;2024-01-27T12:09:01;11.20;;;5.05;;
76023;SDS011;64719;52.124;6.226;2024-01-27T12:11:27;12.32;;;4.85;;
76023;SDS011;64719;52.124;6.226;2024-01-27T12:13:55;10.88;;;5.03;;
76023;SDS011;64719;52.124;6.226;2024-01-27T12:16:22;10.75;;;4.65;;
76023;SDS011;64719;52.124;6.226;2024-01-27T12:18:51;12.15;;;5.03;;
76023;SDS011;64719;52.124;6.226;2024-01-27T12:21:18;10.50;;;4.57;;
76023;SDS011;64719;52.124;6.226;2024-01-27T12:23:49;9.82;;;4.53;;
76023;SDS011;64719;52.124;6.226;2024-01-27T12:26:17;10.50;;;3.67;;
76023;SDS011;64719;52.124;6.226;2024-01-27T12:28:45;12.45;;;3.92;;
76023;SDS011;64719;52.124;6.226;2024-01-27T12:31:11;9.35;;;3.75;;
76023;SDS011;64719;52.124;6.226;2024-01-27T12:33:37;10.02;;;3.45;;
76023;SDS011;64719;52.124;6.226;2024-01-27T12:36:06;13.95;;;3.92;;
76023;SDS011;64719;52.124;6.226;2024-01-27T12:38:33;9.60;;;3.60;;
76023;SDS011;64719;52.124;6.226;2024-01-27T12:40:59;17.13;;;4.25;;
76023;SDS011;64719;52.124;6.226;2024-01-27T12:43:27;7.63;;;4.50;;
76023;SDS011;64719;52.124;6.226;2024-01-27T12:45:53;11.18;;;4.03;;
76023;SDS011;64719;52.124;6.226;2024-01-27T12:48:20;10.30;;;4.15;;
76023;SDS011;64719;52.124;6.226;2024-01-27T12:50:46;9.23;;;3.88;;
76023;SDS011;64719;52.124;6.226;2024-01-27T12:53:12;18.33;;;4.75;;
76023;SDS011;64719;52.124;6.226;2024-01-27T12:55:39;9.52;;;4.53;;
76023;SDS011;64719;52.124;6.226;2024-01-27T12:58:05;9.90;;;3.95;;
76023;SDS011;64719;52.124;6.226;2024-01-27T13:00:33;10.65;;;3.30;;
76023;SDS011;64719;52.124;6.226;2024-01-27T13:03:00;9.68;;;3.65;;
76023;SDS011;64719;52.124;6.226;2024-01-27T13:05:26;9.93;;;4.00;;
76023;SDS011;64719;52.124;6.226;2024-01-27T13:10:20;10.15;;;3.90;;
76023;SDS011;64719;52.124;6.226;2024-01-27T13:12:47;15.05;;;4.35;;
76023;SDS011;64719;52.124;6.226;2024-01-27T13:15:13;12.80;;;4.40;;
76023;SDS011;64719;52.124;6.226;2024-01-27T13:17:41;15.75;;;4.63;;
76023;SDS011;64719;52.124;6.226;2024-01-27T13:20:08;10.18;;;3.70;;
76023;SDS011;64719;52.124;6.226;2024-01-27T13:22:34;10.02;;;3.78;;
76023;SDS011;64719;52.124;6.226;2024-01-27T13:25:00;9.40;;;3.63;;
76023;SDS011;64719;52.124;6.226;2024-01-27T13:27:29;10.93;;;4.60;;
76023;SDS011;64719;52.124;6.226;2024-01-27T13:29:55;11.20;;;4.32;;
76023;SDS011;64719;52.124;6.226;2024-01-27T13:32:22;8.52;;;4.43;;
76023;SDS011;64719;52.124;6.226;2024-01-27T13:34:49;13.18;;;3.78;;
76023;SDS011;64719;52.124;6.226;2024-01-27T13:37:16;11.98;;;3.55;;
76023;SDS011;64719;52.124;6.226;2024-01-27T13:39:42;13.02;;;3.67;;
76023;SDS011;64719;52.124;6.226;2024-01-27T13:42:09;9.63;;;4.13;;
76023;SDS011;64719;52.124;6.226;2024-01-27T13:44:35;8.02;;;3.38;;
76023;SDS011;64719;52.124;6.226;2024-01-27T13:47:01;9.02;;;3.33;;
76023;SDS011;64719;52.124;6.226;2024-01-27T13:49:29;9.40;;;3.22;;
76023;SDS011;64719;52.124;6.226;2024-01-27T13:51:57;8.93;;;3.42;;
76023;SDS011;64719;52.124;6.226;2024-01-27T13:54:23;8.50;;;2.83;;
76023;SDS011;64719;52.124;6.226;2024-01-27T13:56:50;11.70;;;3.03;;
76023;SDS011;64719;52.124;6.226;2024-01-27T13:59:16;10.20;;;3.00;;
76023;SDS011;64719;52.124;6.226;2024-01-27T14:01:42;10.20;;;3.38;;
76023;SDS011;64719;52.124;6.226;2024-01-27T14:04:08;9.88;;;3.15;;
76023;SDS011;64719;52.124;6.226;2024-01-27T14:06:35;4.70;;;2.78;;
76023;SDS011;64719;52.124;6.226;2024-01-27T14:09:02;11.82;;;3.17;;
76023;SDS011;64719;52.124;6.226;2024-01-27T14:11:29;11.88;;;3.50;;
76023;SDS011;64719;52.124;6.226;2024-01-27T14:13:55;10.13;;;2.75;;
76023;SDS011;64719;52.124;6.226;2024-01-27T14:16:21;11.18;;;3.65;;
76023;SDS011;64719;52.124;6.226;2024-01-27T14:18:48;11.23;;;3.15;;
76023;SDS011;64719;52.124;6.226;2024-01-27T14:21:14;11.68;;;3.30;;
76023;SDS011;64719;52.124;6.226;2024-01-27T14:23:40;8.55;;;3.35;;
76023;SDS011;64719;52.124;6.226;2024-01-27T14:26:08;10.07;;;3.08;;
76023;SDS011;64719;52.124;6.226;2024-01-27T14:28:39;11.68;;;3.35;;
76023;SDS011;64719;52.124;6.226;2024-01-27T14:31:06;10.20;;;2.78;;
76023;SDS011;64719;52.124;6.226;2024-01-27T14:33:35;9.07;;;3.30;;